createdAt,value
2022-09-26T00:22:24.381Z,20.70
2022-09-26T00:24:56.596Z,21.23
2022-09-26T00:27:33.795Z,21.13
2022-09-26T00:36:20.225Z,20.88
2022-09-26T00:39:26.535Z,19.98
2022-09-26T00:42:04.585Z,20.08
2022-09-26T00:45:06.725Z,21.20
2022-09-26T00:47:54.097Z,22.63
2022-09-26T00:50:50.384Z,20.50
2022-09-26T00:57:04.119Z,23.88
2022-09-26T01:02:50.065Z,25.98
2022-09-26T01:05:27.869Z,20.77
2022-09-26T01:11:34.275Z,19.58
2022-09-26T01:14:14.236Z,25.10
2022-09-26T01:21:25.480Z,22.30
2022-09-26T01:24:23.165Z,24.90
2022-09-26T01:27:13.216Z,25.98
2022-09-26T01:30:20.065Z,24.08
2022-09-26T06:36:13.026Z,26.70
2022-09-26T07:42:10.336Z,27.48
2022-09-26T07:47:52.627Z,25.67
2022-09-26T07:54:09.471Z,29.60
2022-09-26T08:15:41.282Z,33.83
2022-09-26T08:18:22.599Z,31.17
2022-09-26T08:20:55.501Z,32.95
2022-09-26T08:23:29.551Z,43.28
2022-09-26T08:29:11.895Z,36.33
2022-09-26T08:31:46.696Z,34.58
2022-09-26T08:34:25.241Z,34.40
2022-09-26T08:37:18.372Z,37.83
2022-09-26T08:40:08.819Z,32.45
2022-09-26T08:43:20.782Z,31.98
2022-09-26T08:46:52.676Z,30.77
2022-09-26T08:50:26.409Z,30.65
2022-09-26T08:59:47.830Z,26.85
2022-09-26T09:02:44.833Z,25.88
2022-09-26T09:05:39.992Z,27.45
2022-09-26T09:08:45.307Z,23.65
2022-09-26T09:12:39.066Z,22.73
2022-09-26T09:15:55.967Z,23.50
2022-09-26T09:18:53.345Z,25.08
2022-09-26T09:22:12.220Z,23.05
2022-09-26T09:25:25.178Z,24.00
2022-09-26T09:28:51.082Z,27.23
2022-09-26T09:31:28.855Z,23.73
2022-09-26T09:34:36.260Z,25.15
2022-09-26T09:37:48.143Z,25.05
2022-09-26T09:40:51.295Z,20.77
2022-09-26T09:47:30.367Z,18.17
2022-09-26T14:48:41.578Z,4.45
2022-09-26T14:51:42.533Z,5.45
